Time;durP1;ratioP1;P1;durP2;ratioP2;P2;SDS_P1;SDS_P2;PMS_P1;PMS_P2;Temp;Humidity;BMP_temperature;BMP_pressure;BME280_temperature;BME280_humidity;BME280_pressure;Samples;Min_cycle;Max_cycle;Signal;HPM_P1;HPM_P2
2023/04/03 00:01:12;;;;;;;9.27;3.70;;;6.70;99.90;;;;;;5001906;28;20072;-92
2023/04/03 00:03:38;;;;;;;8.45;4.80;;;6.60;99.90;;;;;;4985708;28;20022;-93
2023/04/03 00:06:06;;;;;;;6.13;2.88;;;6.60;99.90;;;;;;5018500;28;20580;-94
2023/04/03 00:08:32;;;;;;;5.72;2.80;;;6.60;99.90;;;;;;5017565;28;20064;-93
2023/04/03 00:10:58;;;;;;;7.38;3.00;;;6.60;99.90;;;;;;5018019;28;20048;-93
2023/04/03 00:13:24;;;;;;;6.38;2.47;;;6.60;99.90;;;;;;5001488;28;20025;-92
2023/04/03 00:15:51;;;;;;;5.45;2.20;;;6.50;99.90;;;;;;5017687;28;20025;-95
2023/04/03 00:18:17;;;;;;;4.97;2.13;;;6.50;99.90;;;;;;5017676;28;20083;-94
2023/04/03 00:20:43;;;;;;;6.75;1.90;;;6.50;99.90;;;;;;5018343;28;20014;-93
2023/04/03 00:23:09;;;;;;;5.93;2.15;;;6.50;99.90;;;;;;5001677;28;20034;-95
2023/04/03 00:25:34;;;;;;;8.25;2.97;;;6.50;99.90;;;;;;4985455;28;20049;-95
2023/04/03 00:28:00;;;;;;;5.05;2.33;;;6.40;99.90;;;;;;5018168;28;20017;-93
2023/04/03 00:30:26;;;;;;;3.90;1.70;;;6.40;99.90;;;;;;5018311;28;20087;-95
2023/04/03 00:32:53;;;;;;;5.50;2.00;;;6.40;99.90;;;;;;5012624;28;20100;-94
2023/04/03 00:35:20;;;;;;;5.43;1.73;;;6.30;99.90;;;;;;5041744;28;20020;-93
2023/04/03 00:37:47;;;;;;;4.45;1.73;;;6.30;99.90;;;;;;5040865;28;20060;-93
2023/04/03 00:40:14;;;;;;;5.10;1.92;;;6.30;99.90;;;;;;5032014;28;20033;-92
2023/04/03 00:42:42;;;;;;;6.90;1.80;;;6.30;99.90;;;;;;5021904;28;20147;-95
2023/04/03 00:45:11;;;;;;;4.03;1.38;;;6.30;99.90;;;;;;5018543;28;20606;-95
2023/04/03 00:47:38;;;;;;;5.18;1.90;;;6.30;99.90;;;;;;5018328;28;20025;-95
2023/04/03 00:50:04;;;;;;;4.47;1.52;;;6.20;99.90;;;;;;5001797;28;20021;-94
2023/04/03 00:52:31;;;;;;;5.25;1.80;;;6.20;99.90;;;;;;5001948;28;20029;-95
2023/04/03 00:55:07;;;;;;;5.47;1.75;;;6.20;99.90;;;;;;5000950;28;20089;-93
2023/04/03 00:57:33;;;;;;;24.65;2.63;;;6.20;99.90;;;;;;5017605;28;20025;-95
2023/04/03 01:00:09;;;;;;;5.22;1.65;;;6.10;99.90;;;;;;5001502;28;20041;-94
2023/04/03 01:02:36;;;;;;;4.75;1.77;;;6.10;99.90;;;;;;5017641;28;20025;-93
2023/04/03 01:05:02;;;;;;;5.60;1.98;;;6.10;99.90;;;;;;5001076;28;20033;-96
2023/04/03 01:07:31;;;;;;;3.35;1.60;;;6.10;99.90;;;;;;5000645;28;20385;-92
2023/04/03 01:09:59;;;;;;;5.68;1.80;;;6.10;99.90;;;;;;5016954;28;20021;-92
2023/04/03 01:12:30;;;;;;;6.35;2.03;;;6.10;99.90;;;;;;5016919;28;20028;-93
2023/04/03 01:14:59;;;;;;;4.07;1.60;;;6.10;99.90;;;;;;5017054;28;20022;-92
2023/04/03 01:17:38;;;;;;;6.28;1.92;;;6.00;99.90;;;;;;5016635;28;20022;-93
2023/04/03 01:20:23;;;;;;;3.55;1.80;;;6.00;99.90;;;;;;5017042;28;20027;-94
2023/04/03 01:23:09;;;;;;;5.00;1.90;;;6.00;99.90;;;;;;5034164;28;20029;-94
2023/04/03 01:25:39;;;;;;;6.50;1.85;;;6.00;99.90;;;;;;5036609;28;20512;-93
2023/04/03 01:28:08;;;;;;;6.53;2.05;;;5.90;99.90;;;;;;5037070;28;20028;-93
2023/04/03 01:30:47;;;;;;;4.20;1.52;;;5.90;99.90;;;;;;5038520;28;20032;-93
2023/04/03 01:33:13;;;;;;;6.57;2.25;;;5.90;99.90;;;;;;5040853;28;20103;-95
2023/04/03 01:35:39;;;;;;;10.57;2.55;;;5.90;99.90;;;;;;5024849;28;20021;-94
2023/04/03 01:38:05;;;;;;;5.10;1.83;;;5.90;99.90;;;;;;5041208;28;20373;-95
2023/04/03 01:40:30;;;;;;;4.65;1.70;;;5.90;99.90;;;;;;5034257;28;20029;-95
2023/04/03 01:42:56;;;;;;;5.00;1.90;;;5.90;99.90;;;;;;5047246;28;20021;-95
2023/04/03 01:45:21;;;;;;;5.82;1.80;;;5.80;99.90;;;;;;5008581;28;20123;-91
2023/04/03 01:47:47;;;;;;;4.45;1.75;;;5.80;99.90;;;;;;5007580;28;20173;-92
2023/04/03 01:50:13;;;;;;;4.72;2.13;;;5.80;99.90;;;;;;5035560;28;20020;-95
2023/04/03 01:52:38;;;;;;;6.88;2.03;;;5.80;99.90;;;;;;5048124;28;20022;-95
2023/04/03 01:55:05;;;;;;;4.60;1.90;;;5.80;99.90;;;;;;5064581;28;20052;-96
2023/04/03 01:57:30;;;;;;;5.30;2.13;;;5.70;99.90;;;;;;5040897;28;20492;-95
2023/04/03 01:59:56;;;;;;;6.78;1.80;;;5.80;99.90;;;;;;5024060;28;20018;-95
2023/04/03 02:02:22;;;;;;;6.82;2.10;;;5.70;99.90;;;;;;5007878;28;20521;-94
2023/04/03 02:04:47;;;;;;;4.32;1.98;;;5.70;99.90;;;;;;5024154;28;20017;-95
2023/04/03 02:07:13;;;;;;;4.05;1.52;;;5.70;99.90;;;;;;5024555;28;20025;-96
2023/04/03 02:09:38;;;;;;;4.60;1.90;;;5.70;99.90;;;;;;5024183;28;20032;-95
2023/04/03 02:12:04;;;;;;;5.95;1.63;;;5.70;99.90;;;;;;5024397;28;20040;-93
2023/04/03 02:14:30;;;;;;;8.35;2.42;;;5.60;99.90;;;;;;5023580;28;20047;-92
2023/04/03 02:16:56;;;;;;;6.10;2.20;;;5.70;99.90;;;;;;5023358;28;20488;-93
2023/04/03 02:19:21;;;;;;;4.10;1.60;;;5.70;99.90;;;;;;5023174;28;20457;-94
2023/04/03 02:21:47;;;;;;;7.00;1.85;;;5.60;99.90;;;;;;5023270;28;20104;-93
2023/04/03 02:24:13;;;;;;;7.03;2.20;;;5.60;99.90;;;;;;5023112;28;20032;-93
2023/04/03 02:26:38;;;;;;;5.45;1.90;;;5.60;99.90;;;;;;5007262;28;20094;-93
2023/04/03 02:29:04;;;;;;;6.57;1.90;;;5.60;99.90;;;;;;5007069;28;20033;-93
2023/04/03 02:31:30;;;;;;;6.25;1.98;;;5.50;99.90;;;;;;5007126;28;20033;-92
2023/04/03 02:33:56;;;;;;;6.10;1.70;;;5.50;99.90;;;;;;5006861;28;20032;-93
2023/04/03 02:36:21;;;;;;;6.70;1.75;;;5.50;99.90;;;;;;5023008;28;20021;-92
2023/04/03 02:38:48;;;;;;;6.05;2.97;;;5.50;99.90;;;;;;5022943;28;20458;-92
2023/04/03 02:41:14;;;;;;;5.32;1.85;;;5.50;99.90;;;;;;5007224;28;20075;-93
2023/04/03 02:43:41;;;;;;;4.47;1.92;;;5.50;99.90;;;;;;5023344;28;20036;-93
2023/04/03 02:46:07;;;;;;;4.50;1.63;;;5.40;99.90;;;;;;5006614;28;20029;-91
2023/04/03 02:48:34;;;;;;;5.72;1.90;;;5.40;99.90;;;;;;5031989;28;20028;-91
2023/04/03 02:51:00;;;;;;;6.35;2.08;;;5.40;99.90;;;;;;5015173;28;20044;-91
2023/04/03 02:53:26;;;;;;;5.70;2.13;;;5.40;99.90;;;;;;5030767;28;20021;-92
2023/04/03 02:55:52;;;;;;;9.63;2.20;;;5.40;99.90;;;;;;5005513;28;20026;-91
2023/04/03 02:58:18;;;;;;;6.90;1.80;;;5.40;99.90;;;;;;5016722;28;20030;-92
2023/04/03 03:00:43;;;;;;;3.80;1.70;;;5.40;99.90;;;;;;5016970;28;20018;-91
2023/04/03 03:03:09;;;;;;;5.72;1.80;;;5.30;99.90;;;;;;5015722;28;20029;-88
2023/04/03 03:05:35;;;;;;;7.10;2.20;;;5.30;99.90;;;;;;5017100;28;20026;-87
2023/04/03 03:08:06;;;;;;;6.05;1.60;;;5.30;99.90;;;;;;5005736;28;20035;-87
2023/04/03 03:10:32;;;;;;;7.63;1.98;;;5.30;99.90;;;;;;5006734;28;20120;-87
2023/04/03 03:12:57;;;;;;;7.70;1.88;;;5.30;99.90;;;;;;5005648;28;20049;-86
2023/04/03 03:15:23;;;;;;;6.18;2.00;;;5.30;99.90;;;;;;5005239;28;20018;-86
2023/04/03 03:17:49;;;;;;;5.35;1.92;;;5.30;99.90;;;;;;5004699;28;20045;-90
2023/04/03 03:20:15;;;;;;;5.28;1.80;;;5.20;99.90;;;;;;5005823;28;20033;-87
2023/04/03 03:22:41;;;;;;;5.65;2.35;;;5.20;99.90;;;;;;5028114;28;20021;-87
2023/04/03 03:25:07;;;;;;;9.00;2.03;;;5.20;99.90;;;;;;5031901;28;20367;-86
2023/04/03 03:27:32;;;;;;;5.22;2.10;;;5.20;99.90;;;;;;5021060;28;20470;-87
2023/04/03 03:29:58;;;;;;;6.55;1.83;;;5.20;99.90;;;;;;5022077;28;20025;-86
2023/04/03 03:32:24;;;;;;;6.07;1.95;;;5.10;99.90;;;;;;5001948;28;20064;-87
2023/04/03 03:34:50;;;;;;;5.55;1.92;;;5.10;99.90;;;;;;5001779;28;20026;-86
2023/04/03 03:37:15;;;;;;;5.30;1.95;;;5.10;99.90;;;;;;5002390;28;20083;-90
2023/04/03 03:39:41;;;;;;;5.28;2.30;;;5.10;99.90;;;;;;4988010;28;20033;-91
2023/04/03 03:42:07;;;;;;;8.38;2.95;;;5.10;99.90;;;;;;5009477;28;20079;-90
2023/04/03 03:44:32;;;;;;;7.97;3.00;;;5.10;99.90;;;;;;5027629;28;20027;-90
2023/04/03 03:46:58;;;;;;;7.20;2.00;;;5.10;99.90;;;;;;5025134;28;20030;-91
2023/04/03 03:49:24;;;;;;;4.63;2.13;;;5.10;99.90;;;;;;5018036;28;20120;-90
2023/04/03 03:51:50;;;;;;;7.72;2.95;;;5.10;99.90;;;;;;5018187;28;20068;-91
2023/04/03 03:54:16;;;;;;;7.05;2.55;;;5.10;99.90;;;;;;5017178;28;20184;-91
2023/04/03 03:56:42;;;;;;;7.72;2.33;;;5.00;99.90;;;;;;4985301;28;20033;-92
2023/04/03 03:59:08;;;;;;;6.70;2.08;;;5.00;99.90;;;;;;4985416;28;20033;-91
2023/04/03 04:01:34;;;;;;;7.45;2.42;;;5.00;99.90;;;;;;4985217;28;20155;-91
2023/04/03 04:03:59;;;;;;;7.93;2.10;;;5.00;99.90;;;;;;5001035;28;20036;-88
2023/04/03 04:06:25;;;;;;;7.13;2.13;;;5.00;99.90;;;;;;4985484;28;20029;-88
2023/04/03 04:08:51;;;;;;;8.90;2.70;;;5.00;99.90;;;;;;5012335;28;20112;-93
2023/04/03 04:11:17;;;;;;;5.43;2.20;;;4.90;99.90;;;;;;5021468;28;20059;-93
2023/04/03 04:13:43;;;;;;;8.52;1.83;;;4.90;99.90;;;;;;5021282;28;20547;-92
2023/04/03 04:16:09;;;;;;;7.38;2.00;;;4.90;99.90;;;;;;5022449;28;20457;-93
2023/04/03 04:18:35;;;;;;;6.47;1.90;;;4.90;99.90;;;;;;5005502;28;20043;-95
2023/04/03 04:21:01;;;;;;;5.53;2.00;;;4.90;99.90;;;;;;5021317;28;20033;-94
2023/04/03 04:23:26;;;;;;;5.45;1.90;;;4.80;99.90;;;;;;5004843;28;20115;-94
2023/04/03 04:25:52;;;;;;;4.35;1.92;;;4.90;99.90;;;;;;5020880;28;20053;-94
2023/04/03 04:28:18;;;;;;;8.90;2.95;;;4.80;99.90;;;;;;5037716;28;20040;-94
2023/04/03 04:30:44;;;;;;;7.68;2.60;;;4.80;99.90;;;;;;5021081;28;20067;-93
2023/04/03 04:33:11;;;;;;;7.15;2.22;;;4.80;99.90;;;;;;5004833;28;20040;-95
2023/04/03 04:35:36;;;;;;;7.95;2.67;;;4.70;99.90;;;;;;5020845;28;20025;-93
2023/04/03 04:38:02;;;;;;;6.30;2.00;;;4.70;99.90;;;;;;5020939;28;20036;-93
2023/04/03 04:40:29;;;;;;;8.95;2.42;;;4.70;99.90;;;;;;5020724;28;20029;-93
2023/04/03 04:42:55;;;;;;;6.90;2.10;;;4.70;99.90;;;;;;5017144;28;20033;-88
2023/04/03 04:45:20;;;;;;;6.95;2.35;;;4.70;99.90;;;;;;5000330;28;20025;-87
2023/04/03 04:47:46;;;;;;;8.77;2.88;;;4.70;99.90;;;;;;4999751;28;20033;-87
2023/04/03 04:50:12;;;;;;;7.78;2.28;;;4.70;99.90;;;;;;5016454;28;20047;-88
2023/04/03 04:52:38;;;;;;;7.40;2.42;;;4.60;99.90;;;;;;5000146;28;20109;-87
2023/04/03 04:55:05;;;;;;;9.75;2.50;;;4.70;99.90;;;;;;5016607;28;20025;-88
2023/04/03 04:57:30;;;;;;;5.57;2.70;;;4.60;99.90;;;;;;5000338;28;20032;-88
2023/04/03 04:59:56;;;;;;;6.22;2.15;;;4.60;99.90;;;;;;4986148;28;20029;-96
2023/04/03 05:02:22;;;;;;;15.10;2.90;;;4.50;99.90;;;;;;4988037;28;20029;-96
2023/04/03 05:04:49;;;;;;;6.97;2.50;;;4.50;99.90;;;;;;5003224;28;20029;-96
2023/04/03 05:07:16;;;;;;;7.43;2.35;;;4.50;99.90;;;;;;5002357;28;20029;-96
2023/04/03 05:09:42;;;;;;;5.53;2.00;;;4.50;99.90;;;;;;5006206;28;20066;-94
2023/04/03 05:12:08;;;;;;;6.72;2.20;;;4.50;99.90;;;;;;5001609;28;20371;-95
2023/04/03 05:14:33;;;;;;;8.38;2.65;;;4.50;99.90;;;;;;5018019;28;20067;-96
2023/04/03 05:17:02;;;;;;;6.13;2.00;;;4.50;99.90;;;;;;5000284;28;20443;-88
2023/04/03 05:19:28;;;;;;;6.60;2.13;;;4.40;99.90;;;;;;4984034;28;20479;-87
2023/04/03 05:21:54;;;;;;;6.30;2.40;;;4.40;99.90;;;;;;4986777;28;20026;-88
2023/04/03 05:24:20;;;;;;;5.78;2.00;;;4.40;99.90;;;;;;4999719;28;20449;-88
2023/04/03 05:26:46;;;;;;;9.13;2.28;;;4.30;99.90;;;;;;4999876;28;20033;-88
2023/04/03 05:29:11;;;;;;;8.88;2.50;;;4.30;99.90;;;;;;4999776;28;20040;-87
2023/04/03 05:31:40;;;;;;;4.80;2.15;;;4.30;99.90;;;;;;5016990;28;20112;-88
2023/04/03 05:34:06;;;;;;;7.82;1.77;;;4.30;99.90;;;;;;4990731;28;20022;-88
2023/04/03 05:36:32;;;;;;;6.93;1.83;;;4.30;99.90;;;;;;5014533;28;20018;-88
2023/04/03 05:38:57;;;;;;;9.05;2.20;;;4.20;99.90;;;;;;5030885;28;20116;-87
2023/04/03 05:41:23;;;;;;;6.15;1.95;;;4.20;99.90;;;;;;4998737;28;20030;-86
2023/04/03 05:43:49;;;;;;;9.05;2.38;;;4.20;99.90;;;;;;4999049;28;20061;-87
2023/04/03 05:46:18;;;;;;;5.20;2.33;;;4.20;99.90;;;;;;5018372;28;20037;-88
2023/04/03 05:48:46;;;;;;;7.07;2.90;;;4.20;99.90;;;;;;5032826;28;20159;-93
2023/04/03 05:51:23;;;;;;;8.68;1.98;;;4.20;99.90;;;;;;5000430;28;20034;-91
2023/04/03 05:53:52;;;;;;;5.45;1.83;;;4.10;99.90;;;;;;5016543;28;20116;-92
2023/04/03 05:56:17;;;;;;;8.63;2.10;;;4.10;99.90;;;;;;5017253;28;20029;-91
2023/04/03 05:58:43;;;;;;;8.23;2.40;;;4.20;99.90;;;;;;5000634;28;20033;-92
2023/04/03 06:01:09;;;;;;;12.25;2.17;;;4.10;99.90;;;;;;5000377;28;20026;-91
2023/04/03 06:03:35;;;;;;;6.40;2.10;;;4.10;99.90;;;;;;5000204;28;20080;-91
2023/04/03 06:06:04;;;;;;;8.48;3.45;;;4.10;99.90;;;;;;5002081;28;20120;-96
2023/04/03 06:08:30;;;;;;;5.13;1.95;;;4.10;99.90;;;;;;5022724;28;20092;-95
2023/04/03 06:10:56;;;;;;;6.43;1.90;;;4.10;99.90;;;;;;5021668;28;20021;-96
2023/04/03 06:13:22;;;;;;;6.28;2.20;;;4.10;99.90;;;;;;5030465;28;20045;-96
2023/04/03 06:15:48;;;;;;;7.85;2.13;;;4.10;99.90;;;;;;5022582;28;20030;-95
2023/04/03 06:18:14;;;;;;;6.97;2.22;;;4.10;99.90;;;;;;5012989;28;20037;-96
2023/04/03 06:20:40;;;;;;;6.25;2.03;;;4.10;99.90;;;;;;5034290;28;20021;-96
2023/04/03 06:23:07;;;;;;;5.40;1.80;;;4.10;99.90;;;;;;5025683;28;20021;-94
2023/04/03 06:25:34;;;;;;;5.82;2.10;;;4.10;99.90;;;;;;4987377;28;20398;-94
2023/04/03 06:28:00;;;;;;;5.50;2.13;;;4.10;99.90;;;;;;4987329;28;20041;-93
2023/04/03 06:30:27;;;;;;;9.05;2.25;;;4.10;99.90;;;;;;5019564;28;20041;-95
2023/04/03 06:32:53;;;;;;;9.77;2.00;;;4.10;99.90;;;;;;5003749;28;20024;-93
2023/04/03 06:35:19;;;;;;;9.80;2.45;;;4.20;99.90;;;;;;5019752;28;20021;-94
2023/04/03 06:37:45;;;;;;;5.95;2.10;;;4.20;99.90;;;;;;5003482;28;20038;-96
2023/04/03 06:40:23;;;;;;;7.50;2.55;;;4.20;99.90;;;;;;5004819;28;20026;-93
2023/04/03 06:42:49;;;;;;;4.85;1.75;;;4.20;99.90;;;;;;5019189;28;20116;-87
2023/04/03 06:45:17;;;;;;;8.77;2.22;;;4.30;99.90;;;;;;5004815;28;20064;-94
2023/04/03 06:47:42;;;;;;;7.50;2.20;;;4.20;99.90;;;;;;4990580;28;20061;-94
2023/04/03 06:50:11;;;;;;;8.68;1.98;;;4.30;99.90;;;;;;4990232;28;20030;-93
2023/04/03 06:52:37;;;;;;;6.55;1.85;;;4.30;99.90;;;;;;5029673;28;20025;-95
2023/04/03 06:55:03;;;;;;;3.75;1.80;;;4.30;99.90;;;;;;5016645;28;20029;-94
2023/04/03 06:57:29;;;;;;;6.00;2.33;;;4.30;99.90;;;;;;5015821;28;20033;-95
2023/04/03 06:59:56;;;;;;;7.45;2.10;;;4.40;99.90;;;;;;5008994;28;20035;-96
2023/04/03 07:02:22;;;;;;;5.30;2.30;;;4.30;99.90;;;;;;5006437;28;20084;-96
2023/04/03 07:04:48;;;;;;;10.75;2.25;;;4.40;99.90;;;;;;5022497;28;20018;-96
2023/04/03 07:07:14;;;;;;;5.72;1.95;;;4.40;99.90;;;;;;5023842;28;20021;-95
2023/04/03 07:09:42;;;;;;;6.60;1.83;;;4.40;99.90;;;;;;5009821;28;20410;-95
2023/04/03 07:12:09;;;;;;;9.98;1.90;;;4.50;99.90;;;;;;5006875;28;20116;-96
2023/04/03 07:14:34;;;;;;;9.02;2.00;;;4.50;99.90;;;;;;5012456;28;20022;-96
2023/04/03 07:17:00;;;;;;;8.07;1.90;;;4.50;99.90;;;;;;5031167;28;20493;-96
2023/04/03 07:19:27;;;;;;;7.38;2.17;;;4.50;99.90;;;;;;5028862;28;20021;-96
2023/04/03 07:21:54;;;;;;;7.18;1.75;;;4.50;99.90;;;;;;5027456;28;20056;-95
2023/04/03 07:24:20;;;;;;;7.22;2.10;;;4.50;99.90;;;;;;5018576;28;20029;-93
2023/04/03 07:26:52;;;;;;;10.90;2.15;;;4.60;99.90;;;;;;5018524;28;20129;-93
2023/04/03 07:29:21;;;;;;;5.50;1.85;;;4.60;99.90;;;;;;5022781;28;20045;-92
2023/04/03 07:32:02;;;;;;;7.78;2.00;;;4.70;99.90;;;;;;5000851;28;20028;-96
2023/04/03 07:34:27;;;;;;;6.53;1.95;;;4.70;99.90;;;;;;5013155;28;20133;-93
2023/04/03 07:36:54;;;;;;;7.60;2.15;;;4.70;99.90;;;;;;5010418;28;20053;-89
2023/04/03 07:40:01;;;;;;;6.03;1.60;;;4.80;99.90;;;;;;5027902;28;20041;-90
2023/04/03 07:42:31;;;;;;;7.90;2.10;;;4.80;99.90;;;;;;4996851;28;20170;-92
2023/04/03 07:45:00;;;;;;;7.60;2.20;;;4.90;99.90;;;;;;4971898;28;20041;-91
2023/04/03 07:48:05;;;;;;;7.47;2.08;;;4.90;99.90;;;;;;5028855;28;20025;-96
2023/04/03 07:50:36;;;;;;;5.85;1.70;;;5.00;99.90;;;;;;4969378;28;20516;-94
2023/04/03 07:53:05;;;;;;;7.05;1.90;;;5.10;99.90;;;;;;4962173;28;20508;-94
2023/04/03 07:55:32;;;;;;;4.88;1.67;;;5.10;99.90;;;;;;4976457;28;20045;-95
2023/04/03 07:57:58;;;;;;;5.35;1.58;;;5.20;99.90;;;;;;5043660;28;20119;-93
2023/04/03 08:00:28;;;;;;;5.53;1.48;;;5.20;99.90;;;;;;5007702;28;20062;-93
2023/04/03 08:03:36;;;;;;;5.18;1.80;;;5.30;99.90;;;;;;5032039;28;20013;-91
2023/04/03 08:06:05;;;;;;;7.03;1.70;;;5.30;99.90;;;;;;5554101;23;20055;-95
2023/04/03 08:08:32;;;;;;;5.05;1.60;;;5.40;99.90;;;;;;5040757;28;20072;-93
2023/04/03 08:11:08;;;;;;;6.10;2.40;;;5.40;99.90;;;;;;5024166;28;20466;-93
2023/04/03 08:13:35;;;;;;;5.35;1.42;;;5.60;99.90;;;;;;5020791;28;20018;-93
2023/04/03 08:16:17;;;;;;;5.43;1.60;;;5.60;99.90;;;;;;5020157;28;20104;-93
2023/04/03 08:18:45;;;;;;;7.47;1.73;;;5.70;99.90;;;;;;4998663;28;20022;-93
2023/04/03 08:21:15;;;;;;;5.85;1.63;;;5.80;99.90;;;;;;5033430;28;20367;-92
2023/04/03 08:23:53;;;;;;;4.15;1.27;;;5.90;99.90;;;;;;5021450;28;20025;-91
2023/04/03 08:29:28;;;;;;;5.88;1.63;;;6.00;99.90;;;;;;5024132;28;20093;-91
2023/04/03 08:35:10;;;;;;;2.80;1.17;;;6.20;99.90;;;;;;5014067;28;20029;-93
2023/04/03 08:41:47;;;;;;;4.35;1.90;;;6.40;99.90;;;;;;4910351;29;20040;-92
2023/04/03 08:44:38;;;;;;;3.42;1.13;;;6.50;99.90;;;;;;4930453;29;20031;-91
2023/04/03 08:50:49;;;;;;;3.42;1.10;;;6.70;99.90;;;;;;4954284;29;20045;-91
2023/04/03 08:53:18;;;;;;;3.15;1.17;;;6.80;99.90;;;;;;4948511;29;20516;-93
2023/04/03 08:56:14;;;;;;;3.90;1.00;;;6.90;99.90;;;;;;5007056;28;20103;-96
2023/04/03 09:02:41;;;;;;;2.13;0.95;;;7.10;99.90;;;;;;5049236;28;20040;-95
2023/04/03 09:05:38;;;;;;;4.22;1.17;;;7.10;99.90;;;;;;5055181;28;20029;-96
2023/04/03 09:08:29;;;;;;;3.53;0.90;;;7.20;99.90;;;;;;5034437;28;20491;-95
2023/04/03 09:15:05;;;;;;;2.70;0.70;;;7.50;99.90;;;;;;5003388;28;20033;-91
2023/04/03 09:18:05;;;;;;;3.28;0.82;;;7.50;99.90;;;;;;5013500;28;20080;-94
2023/04/03 09:39:33;;;;;;;1.27;0.60;;;8.30;99.90;;;;;;5428564;22;20041;-96
2023/04/03 09:42:22;;;;;;;1.20;0.55;;;8.40;99.90;;;;;;5021693;28;20033;-91
2023/04/03 09:45:06;;;;;;;1.88;0.80;;;8.50;99.90;;;;;;5021945;28;20081;-94
2023/04/03 09:48:12;;;;;;;2.47;0.70;;;8.60;99.90;;;;;;5039776;28;20013;-94
2023/04/03 09:51:00;;;;;;;3.53;0.65;;;8.70;99.90;;;;;;5039773;28;20117;-94
2023/04/03 10:11:04;;;;;;;1.92;0.60;;;9.20;98.30;;;;;;4998722;28;20108;-91
2023/04/03 10:13:30;;;;;;;2.63;0.70;;;9.30;97.30;;;;;;4981698;28;20026;-92
2023/04/03 10:16:22;;;;;;;1.33;0.70;;;9.30;97.70;;;;;;4984358;28;20061;-89
2023/04/03 10:19:11;;;;;;;1.95;0.75;;;9.40;97.20;;;;;;4985006;28;20034;-92
2023/04/03 10:22:00;;;;;;;2.55;0.60;;;9.50;97.50;;;;;;5015359;28;20034;-92
2023/04/03 10:24:32;;;;;;;2.20;0.77;;;9.50;96.20;;;;;;5021948;28;20033;-95
2023/04/03 10:27:09;;;;;;;2.08;0.70;;;9.60;96.80;;;;;;5020598;28;20116;-95
2023/04/03 10:30:04;;;;;;;2.88;0.88;;;9.70;94.50;;;;;;5022591;28;20064;-96
2023/04/03 10:33:05;;;;;;;1.55;0.80;;;9.70;92.10;;;;;;5020864;28;20432;-94
2023/04/03 10:35:41;;;;;;;3.45;1.02;;;9.70;92.20;;;;;;5021079;28;20021;-93
2023/04/03 10:38:40;;;;;;;3.72;0.82;;;9.80;92.10;;;;;;5020778;28;20133;-92
2023/04/03 10:41:20;;;;;;;2.50;0.80;;;9.80;91.90;;;;;;5021044;28;20155;-93
2023/04/03 10:44:11;;;;;;;2.45;0.93;;;9.90;92.40;;;;;;5021253;28;20026;-92
2023/04/03 10:46:50;;;;;;;3.42;0.73;;;10.00;93.20;;;;;;5019803;28;20029;-93
2023/04/03 10:49:38;;;;;;;2.03;0.70;;;10.00;93.20;;;;;;5020826;28;20026;-93
2023/04/03 10:52:22;;;;;;;3.22;1.00;;;10.10;93.10;;;;;;5019937;28;20026;-93
2023/04/03 10:54:54;;;;;;;3.38;0.80;;;10.20;91.50;;;;;;5019897;28;20021;-93
2023/04/03 10:57:24;;;;;;;1.98;0.70;;;10.30;90.10;;;;;;5020052;28;20022;-92
2023/04/03 10:59:58;;;;;;;1.55;0.80;;;10.30;91.00;;;;;;5019522;28;20021;-93
2023/04/03 11:02:31;;;;;;;1.52;0.70;;;10.40;90.40;;;;;;5019165;28;20049;-95
2023/04/03 11:05:25;;;;;;;2.65;0.68;;;10.50;89.60;;;;;;5019930;28;20033;-90
2023/04/03 11:07:56;;;;;;;1.40;0.63;;;10.60;88.80;;;;;;5014154;28;20045;-95
2023/04/03 11:10:44;;;;;;;2.75;0.80;;;10.70;90.20;;;;;;5022112;28;20029;-94
2023/04/03 11:13:19;;;;;;;2.05;0.73;;;10.80;89.10;;;;;;5021473;28;20056;-95
2023/04/03 11:15:51;;;;;;;2.50;0.75;;;10.80;85.20;;;;;;5022318;28;20418;-95
2023/04/03 11:18:39;;;;;;;3.17;1.00;;;10.90;78.80;;;;;;5021795;28;20026;-95
2023/04/03 11:21:10;;;;;;;3.65;0.70;;;10.90;80.40;;;;;;5007470;28;20063;-94
2023/04/03 11:23:39;;;;;;;1.95;0.77;;;11.00;82.20;;;;;;5029850;28;20101;-92
2023/04/03 11:26:09;;;;;;;2.38;0.82;;;11.10;80.90;;;;;;5014815;28;20029;-94
2023/04/03 11:28:36;;;;;;;2.50;0.98;;;11.20;83.20;;;;;;5010332;28;20084;-93
2023/04/03 11:31:11;;;;;;;1.90;0.70;;;11.30;82.40;;;;;;4967533;28;20379;-93
2023/04/03 11:33:43;;;;;;;2.90;0.82;;;11.30;75.80;;;;;;5001420;28;20116;-95
2023/04/03 11:36:12;;;;;;;1.73;0.90;;;11.40;65.20;;;;;;5002398;28;20116;-95
2023/04/03 11:38:46;;;;;;;2.17;0.82;;;11.40;73.60;;;;;;5009754;28;20069;-92
2023/04/03 11:41:13;;;;;;;4.43;0.80;;;11.40;70.70;;;;;;5000458;28;20041;-91
2023/04/03 11:44:03;;;;;;;2.08;0.90;;;11.40;72.00;;;;;;5008608;28;20041;-91
2023/04/03 11:46:49;;;;;;;1.58;0.80;;;11.50;74.40;;;;;;5016164;28;20033;-92
2023/04/03 11:50:09;;;;;;;1.98;0.80;;;11.60;75.80;;;;;;5017740;28;20033;-93
2023/04/03 11:52:38;;;;;;;1.67;0.77;;;11.70;77.50;;;;;;4978914;28;20026;-92
2023/04/03 11:55:33;;;;;;;4.03;0.95;;;11.70;71.20;;;;;;4996647;28;20038;-91
2023/04/03 11:57:59;;;;;;;1.73;0.90;;;11.80;71.60;;;;;;4980062;28;20091;-93
2023/04/03 12:00:49;;;;;;;2.28;0.98;;;11.90;77.50;;;;;;5019189;28;20118;-92
2023/04/03 12:03:27;;;;;;;2.60;0.90;;;12.00;74.40;;;;;;5023196;28;20341;-93
2023/04/03 12:05:53;;;;;;;2.92;0.93;;;12.10;78.10;;;;;;5023424;28;20029;-93
2023/04/03 12:08:26;;;;;;;3.95;0.90;;;12.10;79.50;;;;;;5000429;28;20033;-93
2023/04/03 12:11:10;;;;;;;1.85;0.85;;;12.30;80.00;;;;;;4999118;28;20026;-93
2023/04/03 12:13:49;;;;;;;2.65;1.00;;;12.40;78.90;;;;;;4997938;28;20026;-93
2023/04/03 12:16:37;;;;;;;3.33;1.33;;;12.40;76.80;;;;;;4998253;28;20026;-92
2023/04/03 12:19:15;;;;;;;2.45;0.98;;;12.50;76.90;;;;;;4998251;28;20471;-93
2023/04/03 12:21:56;;;;;;;2.55;0.90;;;12.50;75.30;;;;;;4998784;28;20030;-92
2023/04/03 12:24:34;;;;;;;2.70;1.17;;;12.50;77.80;;;;;;4999153;28;20080;-94
2023/04/03 12:27:00;;;;;;;3.53;1.17;;;12.60;78.30;;;;;;4998763;28;20030;-95
2023/04/03 12:29:40;;;;;;;4.18;0.98;;;12.70;79.60;;;;;;4999262;28;20097;-90
2023/04/03 12:32:40;;;;;;;2.60;1.00;;;12.70;76.70;;;;;;4997615;28;20427;-89
2023/04/03 12:35:39;;;;;;;2.58;1.02;;;12.80;75.40;;;;;;4998744;28;20391;-94
2023/04/03 12:38:34;;;;;;;2.33;0.93;;;12.90;76.40;;;;;;5003769;28;20028;-95
2023/04/03 12:41:25;;;;;;;3.08;1.00;;;12.90;75.90;;;;;;5005157;28;20065;-95
2023/04/03 12:44:12;;;;;;;3.45;0.90;;;13.00;76.30;;;;;;5007613;28;20046;-93
2023/04/03 12:46:50;;;;;;;2.78;0.93;;;13.00;77.00;;;;;;4999339;28;20651;-94
2023/04/03 12:49:35;;;;;;;3.53;0.95;;;13.00;77.50;;;;;;4998556;28;20116;-93
2023/04/03 12:52:49;;;;;;;3.50;1.10;;;13.10;77.80;;;;;;4998006;28;20022;-94
2023/04/03 12:55:17;;;;;;;2.47;0.90;;;13.20;77.00;;;;;;4986572;28;20163;-90
2023/04/03 12:57:43;;;;;;;4.53;1.25;;;13.30;78.80;;;;;;4997452;28;20026;-89
2023/04/03 13:00:23;;;;;;;2.08;1.10;;;13.30;77.00;;;;;;4997655;28;20030;-89
2023/04/03 13:02:49;;;;;;;2.83;1.10;;;13.30;74.00;;;;;;4998610;28;20056;-95
2023/04/03 13:05:18;;;;;;;2.55;1.10;;;13.30;75.20;;;;;;4982350;28;20030;-95
2023/04/03 13:07:47;;;;;;;3.30;1.10;;;13.40;76.00;;;;;;4998532;28;20104;-96
2023/04/03 13:10:18;;;;;;;2.80;1.05;;;13.40;75.90;;;;;;4983307;28;20037;-96
2023/04/03 13:13:10;;;;;;;2.83;0.98;;;13.40;75.50;;;;;;5000092;28;20030;-96
2023/04/03 13:15:45;;;;;;;2.45;1.05;;;13.40;72.70;;;;;;4999302;28;20141;-95
2023/04/03 13:18:28;;;;;;;2.40;1.05;;;13.40;74.00;;;;;;5001143;28;20131;-95
2023/04/03 13:20:59;;;;;;;3.88;1.30;;;13.40;73.30;;;;;;4998077;28;20471;-94
2023/04/03 13:23:25;;;;;;;4.32;1.15;;;13.50;75.10;;;;;;4998206;28;20487;-93
2023/04/03 13:25:51;;;;;;;2.58;0.95;;;13.50;75.00;;;;;;4999772;28;20022;-92
2023/04/03 13:28:22;;;;;;;3.78;1.30;;;13.50;73.80;;;;;;5001534;28;20835;-91
2023/04/03 13:30:59;;;;;;;4.22;1.35;;;13.60;73.60;;;;;;5001591;28;20036;-91
2023/04/03 13:33:27;;;;;;;3.60;1.50;;;13.60;72.80;;;;;;5002737;28;20109;-91
2023/04/03 13:36:30;;;;;;;5.63;1.40;;;13.60;72.10;;;;;;5017992;28;20068;-94
2023/04/03 13:39:13;;;;;;;3.15;1.33;;;13.60;71.90;;;;;;5005125;28;20065;-93
2023/04/03 13:41:45;;;;;;;3.53;1.30;;;13.50;72.20;;;;;;5021200;28;20037;-94
2023/04/03 13:44:23;;;;;;;2.47;1.20;;;13.60;72.50;;;;;;5020951;28;20112;-88
2023/04/03 13:46:51;;;;;;;3.00;1.10;;;13.60;70.30;;;;;;5020309;28;20041;-89
2023/04/03 13:49:31;;;;;;;4.70;1.40;;;13.60;71.60;;;;;;5020211;28;20493;-89
2023/04/03 13:51:58;;;;;;;3.83;1.20;;;13.60;71.50;;;;;;5020507;28;20034;-88
2023/04/03 13:54:34;;;;;;;4.03;1.20;;;13.60;70.00;;;;;;5020202;28;20100;-89
2023/04/03 13:57:01;;;;;;;3.15;1.10;;;13.70;71.70;;;;;;5020157;28;20021;-91
2023/04/03 13:59:33;;;;;;;3.10;1.30;;;13.70;70.30;;;;;;5020416;28;20025;-90
2023/04/03 14:02:02;;;;;;;3.88;1.13;;;13.80;70.80;;;;;;5020040;28;20079;-90
2023/04/03 14:04:30;;;;;;;3.35;1.15;;;13.80;70.30;;;;;;5020150;28;20053;-90
2023/04/03 14:06:56;;;;;;;3.88;1.35;;;13.90;70.00;;;;;;5023159;28;20461;-93
2023/04/03 14:09:24;;;;;;;4.47;1.40;;;13.90;68.00;;;;;;5006333;28;20032;-95
2023/04/03 14:11:54;;;;;;;5.07;1.13;;;13.90;68.60;;;;;;5021640;28;20493;-95
2023/04/03 14:14:23;;;;;;;3.40;1.42;;;14.00;68.10;;;;;;5021509;28;20029;-94
2023/04/03 14:16:55;;;;;;;3.65;1.63;;;14.10;66.00;;;;;;5021870;28;20030;-95